createdAt,value
2023-12-15T00:01:24.307Z,10.02
2023-12-15T00:06:21.784Z,9.82
2023-12-15T00:11:19.236Z,8.68
2023-12-15T00:16:16.812Z,8.93
2023-12-15T00:21:14.298Z,9.88
2023-12-15T00:26:11.732Z,9.85
2023-12-15T00:31:08.991Z,11.00
2023-12-15T00:36:06.895Z,12.65
2023-12-15T00:41:04.490Z,10.80
2023-12-15T00:46:01.901Z,11.82
2023-12-15T00:50:59.216Z,10.80
2023-12-15T00:55:56.629Z,9.48
2023-12-15T01:00:54.222Z,10.57
2023-12-15T01:05:52.300Z,9.98
2023-12-15T01:10:50.491Z,8.75
2023-12-15T01:15:48.046Z,14.75
2023-12-15T01:20:45.447Z,12.40
2023-12-15T01:25:42.843Z,10.43
2023-12-15T01:30:40.369Z,10.30
2023-12-15T01:35:38.036Z,11.65
2023-12-15T01:40:35.372Z,10.60
2023-12-15T01:45:32.688Z,11.43
2023-12-15T01:50:30.208Z,11.48
2023-12-15T01:55:29.130Z,11.80
2023-12-15T02:00:27.975Z,11.30
2023-12-15T02:05:27.358Z,12.02
2023-12-15T02:10:25.307Z,11.87
2023-12-15T02:15:22.705Z,12.55
2023-12-15T02:20:20.165Z,12.45
2023-12-15T02:25:17.645Z,12.55
2023-12-15T02:30:15.068Z,10.93
2023-12-15T02:35:13.392Z,10.75
2023-12-15T02:40:11.206Z,11.13
2023-12-15T02:45:08.872Z,10.05
2023-12-15T02:50:06.738Z,10.68
2023-12-15T02:55:04.450Z,10.95
2023-12-15T03:00:02.019Z,10.93
2023-12-15T03:04:59.429Z,10.15
2023-12-15T03:09:56.824Z,10.70
2023-12-15T03:14:54.120Z,11.43
2023-12-15T03:19:52.158Z,11.88
2023-12-15T03:24:49.656Z,10.48
2023-12-15T03:29:46.982Z,9.65
2023-12-15T03:34:44.621Z,9.48
2023-12-15T03:39:42.207Z,9.02
2023-12-15T03:44:42.572Z,9.48
2023-12-15T03:49:39.813Z,10.77
2023-12-15T03:54:37.262Z,9.57
2023-12-15T03:59:34.739Z,10.13
2023-12-15T04:04:33.387Z,9.18
2023-12-15T04:09:30.683Z,10.70
2023-12-15T04:14:28.134Z,11.82
2023-12-15T04:19:25.578Z,11.10
2023-12-15T04:24:23.019Z,12.43
2023-12-15T04:29:20.613Z,10.93
2023-12-15T04:34:18.041Z,11.32
2023-12-15T04:39:15.779Z,8.93
2023-12-15T04:44:13.210Z,11.57
2023-12-15T04:49:10.704Z,11.65
2023-12-15T04:54:09.497Z,10.57
2023-12-15T04:59:07.096Z,12.02
2023-12-15T05:04:05.104Z,11.02
2023-12-15T05:09:06.449Z,10.80
2023-12-15T05:14:04.131Z,10.93
2023-12-15T05:19:01.646Z,11.88
2023-12-15T05:24:01.779Z,11.27
2023-12-15T05:29:00.070Z,11.05
2023-12-15T05:33:57.513Z,11.70
2023-12-15T05:38:54.824Z,12.20
2023-12-15T05:43:52.048Z,12.57
2023-12-15T05:48:50.476Z,11.27
2023-12-15T05:53:55.452Z,12.15
2023-12-15T05:58:55.728Z,12.18
2023-12-15T06:03:54.060Z,11.85
2023-12-15T06:08:52.079Z,9.93
2023-12-15T06:13:49.449Z,11.60
2023-12-15T06:18:48.014Z,11.20
2023-12-15T06:23:45.465Z,10.45
2023-12-15T06:28:42.779Z,9.02
2023-12-15T06:33:40.289Z,10.52
2023-12-15T06:38:38.476Z,9.88
2023-12-15T06:43:35.812Z,10.77
2023-12-15T06:48:33.329Z,9.82
2023-12-15T06:53:30.984Z,11.05
2023-12-15T06:58:28.394Z,10.45
2023-12-15T07:03:25.863Z,10.02
2023-12-15T07:08:23.369Z,10.65
2023-12-15T07:13:20.866Z,8.77
2023-12-15T07:18:18.354Z,7.80
2023-12-15T07:23:15.700Z,9.23
2023-12-15T07:28:13.106Z,9.10
2023-12-15T07:33:10.621Z,8.60
2023-12-15T07:38:09.596Z,7.53
2023-12-15T07:43:06.942Z,8.52
2023-12-15T07:48:04.704Z,7.65
2023-12-15T07:53:02.184Z,6.93
2023-12-15T07:57:59.547Z,7.07
2023-12-15T08:02:56.873Z,7.07
2023-12-15T08:07:54.531Z,7.95
2023-12-15T08:12:51.823Z,8.02
2023-12-15T08:17:49.512Z,8.40
2023-12-15T08:22:46.902Z,7.30
2023-12-15T08:27:44.309Z,8.25
2023-12-15T08:32:41.819Z,7.43
2023-12-15T08:37:39.333Z,7.43
2023-12-15T08:42:36.837Z,8.38
2023-12-15T08:47:34.988Z,8.48
2023-12-15T08:52:32.540Z,9.90
2023-12-15T08:57:30.010Z,8.07
2023-12-15T09:02:27.979Z,8.35
2023-12-15T09:07:25.317Z,8.73
2023-12-15T09:12:24.062Z,10.95
2023-12-15T09:17:21.536Z,8.93
2023-12-15T09:22:19.450Z,9.43
2023-12-15T09:27:16.879Z,9.68
2023-12-15T09:32:14.217Z,9.25
2023-12-15T09:37:11.961Z,8.55
2023-12-15T09:42:09.359Z,8.70
2023-12-15T09:47:08.726Z,8.98
2023-12-15T09:52:09.066Z,8.88
2023-12-15T09:57:06.590Z,8.52
2023-12-15T10:02:04.131Z,8.55
2023-12-15T10:07:01.509Z,9.77
2023-12-15T10:11:59.060Z,8.75
2023-12-15T10:16:57.905Z,9.13
2023-12-15T10:21:56.843Z,9.07
2023-12-15T10:26:54.608Z,10.20
2023-12-15T10:31:52.830Z,9.40
2023-12-15T10:36:51.162Z,8.40
2023-12-15T10:41:49.275Z,8.55
2023-12-15T10:46:48.662Z,9.00
2023-12-15T10:51:48.568Z,7.07
2023-12-15T10:56:46.608Z,7.50
2023-12-15T11:01:45.535Z,8.20
2023-12-15T11:06:43.080Z,7.13
2023-12-15T11:11:40.579Z,7.82
2023-12-15T11:16:39.611Z,8.40
2023-12-15T11:21:38.180Z,8.50
2023-12-15T11:26:41.168Z,7.13
2023-12-15T11:31:41.938Z,6.68
2023-12-15T11:36:45.945Z,6.82
2023-12-15T11:41:44.296Z,6.40
2023-12-15T11:46:41.887Z,7.10
2023-12-15T11:51:39.602Z,5.88
2023-12-15T11:56:37.392Z,7.05
2023-12-15T12:01:39.467Z,6.40
2023-12-15T12:06:37.556Z,7.22
2023-12-15T12:11:35.038Z,7.25
2023-12-15T12:16:38.454Z,6.43
2023-12-15T12:21:35.952Z,6.80
2023-12-15T12:26:33.721Z,5.72
2023-12-15T12:31:31.090Z,6.55
2023-12-15T12:36:30.034Z,6.07
2023-12-15T12:41:27.546Z,5.50
2023-12-15T12:46:25.175Z,5.93
2023-12-15T12:51:22.459Z,5.78
2023-12-15T12:56:22.858Z,5.10
2023-12-15T13:01:20.221Z,5.50
2023-12-15T13:06:18.489Z,6.07
2023-12-15T13:11:15.971Z,5.65
2023-12-15T13:16:16.134Z,5.47
2023-12-15T13:21:13.645Z,5.78
2023-12-15T13:26:11.056Z,6.00
2023-12-15T13:31:08.692Z,5.47
2023-12-15T13:36:13.176Z,5.25
2023-12-15T13:41:14.359Z,5.30
2023-12-15T13:46:12.112Z,5.30
2023-12-15T13:51:10.422Z,5.07
2023-12-15T13:56:08.328Z,5.75
2023-12-15T14:01:05.937Z,5.40
2023-12-15T14:06:05.737Z,5.13
2023-12-15T14:11:04.698Z,6.63
2023-12-15T14:16:08.516Z,6.70
2023-12-15T14:21:07.508Z,5.72
2023-12-15T14:26:05.899Z,6.10
2023-12-15T14:31:03.667Z,6.95
2023-12-15T14:36:01.223Z,6.03
2023-12-15T14:41:01.539Z,6.28
2023-12-15T14:46:00.935Z,6.47
2023-12-15T14:50:58.824Z,6.82
2023-12-15T14:55:56.362Z,7.40
2023-12-15T15:00:54.244Z,6.07
2023-12-15T15:05:51.850Z,6.55
2023-12-15T15:10:49.633Z,6.90
2023-12-15T15:15:47.190Z,7.57
2023-12-15T15:20:44.774Z,7.75
2023-12-15T15:25:42.158Z,7.60
2023-12-15T15:30:40.292Z,7.63
2023-12-15T15:35:38.325Z,7.40
2023-12-15T15:40:36.389Z,7.45
2023-12-15T15:45:34.103Z,8.35
2023-12-15T15:50:31.449Z,7.25
2023-12-15T15:55:28.911Z,8.15
2023-12-15T16:00:26.354Z,8.73
2023-12-15T16:05:23.797Z,8.80
2023-12-15T16:10:21.255Z,8.60
2023-12-15T16:15:18.769Z,8.70
2023-12-15T16:20:16.167Z,9.35
2023-12-15T16:25:13.531Z,10.88
2023-12-15T16:30:11.750Z,11.32
2023-12-15T16:35:09.327Z,11.52
2023-12-15T16:40:07.658Z,11.90
2023-12-15T16:45:09.592Z,11.40
2023-12-15T16:50:07.525Z,12.63
2023-12-15T16:55:06.950Z,11.60
2023-12-15T17:00:05.098Z,12.98
2023-12-15T17:05:02.694Z,12.70
2023-12-15T17:10:00.255Z,13.98
2023-12-15T17:14:57.530Z,12.73
2023-12-15T17:19:55.061Z,12.65
2023-12-15T17:24:52.920Z,13.90
2023-12-15T17:29:50.950Z,13.80
2023-12-15T17:34:48.322Z,14.77
2023-12-15T17:39:45.924Z,13.90
2023-12-15T17:44:43.342Z,15.63
2023-12-15T17:49:41.128Z,16.35
2023-12-15T17:54:38.657Z,15.38
2023-12-15T17:59:36.015Z,15.20
2023-12-15T18:04:33.921Z,13.32
2023-12-15T18:09:31.319Z,11.45
2023-12-15T18:14:28.677Z,12.50
2023-12-15T18:19:26.176Z,13.48
2023-12-15T18:24:23.655Z,15.13
2023-12-15T18:29:26.092Z,16.52
2023-12-15T18:34:23.645Z,15.95
2023-12-15T18:39:21.036Z,17.60
2023-12-15T18:44:18.552Z,16.95
2023-12-15T18:49:16.251Z,15.88
2023-12-15T18:54:14.889Z,16.50
2023-12-15T18:59:13.340Z,17.35
2023-12-15T19:04:13.600Z,17.38
2023-12-15T19:09:12.210Z,16.67
2023-12-15T19:14:10.918Z,17.42
2023-12-15T19:19:10.472Z,16.83
2023-12-15T19:24:08.469Z,18.02
2023-12-15T19:29:05.789Z,19.50
2023-12-15T19:34:03.337Z,18.73
2023-12-15T19:39:01.028Z,21.20
2023-12-15T19:43:58.661Z,21.90
2023-12-15T19:48:56.349Z,22.92
2023-12-15T19:53:55.035Z,22.92
2023-12-15T19:58:53.609Z,23.10
2023-12-15T20:03:51.696Z,24.90
2023-12-15T20:08:49.085Z,22.33
2023-12-15T20:13:47.325Z,23.25
2023-12-15T20:18:45.074Z,22.92
2023-12-15T20:23:42.520Z,21.98
2023-12-15T20:28:42.832Z,24.35
2023-12-15T20:33:40.357Z,23.55
2023-12-15T20:38:38.340Z,25.15
2023-12-15T20:43:35.836Z,24.20
2023-12-15T20:48:33.663Z,24.63
2023-12-15T20:53:30.972Z,24.55
2023-12-15T20:58:28.295Z,25.08
2023-12-15T21:03:25.819Z,21.77
2023-12-15T21:08:23.303Z,21.63
2023-12-15T21:13:20.781Z,22.38
2023-12-15T21:18:18.309Z,22.83
2023-12-15T21:23:15.762Z,20.85
2023-12-15T21:28:15.374Z,23.25
2023-12-15T21:33:13.340Z,25.20
2023-12-15T21:38:10.746Z,23.35
2023-12-15T21:43:08.944Z,21.95
2023-12-15T21:48:06.721Z,23.98
2023-12-15T21:53:04.199Z,21.52
2023-12-15T21:58:01.708Z,23.10
2023-12-15T22:03:00.739Z,22.75
2023-12-15T22:07:57.991Z,23.30
2023-12-15T22:12:55.365Z,22.60
2023-12-15T22:17:55.156Z,23.05
2023-12-15T22:22:52.695Z,22.08
2023-12-15T22:27:51.553Z,23.05
2023-12-15T22:32:48.945Z,21.77
2023-12-15T22:37:46.341Z,19.95
2023-12-15T22:42:44.731Z,21.48
2023-12-15T22:47:42.377Z,21.75
2023-12-15T22:52:40.437Z,23.73
2023-12-15T22:57:38.513Z,21.67
2023-12-15T23:02:36.076Z,22.52
2023-12-15T23:07:33.423Z,23.92
2023-12-15T23:12:30.862Z,22.08
2023-12-15T23:17:28.572Z,22.02
2023-12-15T23:22:25.988Z,21.20
2023-12-15T23:27:23.394Z,20.95
2023-12-15T23:32:20.729Z,19.10
2023-12-15T23:37:18.057Z,19.77
2023-12-15T23:42:15.538Z,18.13
2023-12-15T23:47:13.304Z,19.23
2023-12-15T23:52:10.636Z,20.67
2023-12-15T23:57:07.964Z,19.80
